createdAt,value
2018-12-25T00:00:18.123Z,1019.13
2018-12-25T00:01:18.109Z,1019.19
2018-12-25T00:02:18.097Z,1019.21
2018-12-25T00:03:18.087Z,1019.22
2018-12-25T00:04:18.075Z,1019.23
2018-12-25T00:05:18.088Z,1019.16
2018-12-25T00:06:18.057Z,1019.14
2018-12-25T00:07:18.047Z,1019.11
2018-12-25T00:08:18.048Z,1019.09
2018-12-25T00:09:18.033Z,1019.07
2018-12-25T00:10:18.036Z,1019.10
2018-12-25T00:11:18.002Z,1019.06
2018-12-25T00:12:17.989Z,1019.08
2018-12-25T00:13:18.029Z,1019.09
2018-12-25T00:14:17.989Z,1019.09
2018-12-25T00:15:17.959Z,1019.04
2018-12-25T00:16:17.945Z,1019.04
2018-12-25T00:17:17.959Z,1019.10
2018-12-25T00:18:17.927Z,1019.04
2018-12-25T00:19:17.919Z,1019.05
2018-12-25T00:20:17.908Z,1018.99
2018-12-25T00:21:17.907Z,1018.93
2018-12-25T00:22:17.879Z,1018.91
2018-12-25T00:23:17.875Z,1018.87
2018-12-25T00:24:17.883Z,1018.85
2018-12-25T00:25:17.853Z,1018.86
2018-12-25T00:26:17.844Z,1018.86
2018-12-25T00:27:17.829Z,1018.92
2018-12-25T00:28:17.820Z,1018.90
2018-12-25T00:29:17.803Z,1018.90
2018-12-25T00:30:17.819Z,1018.87
2018-12-25T00:31:17.786Z,1018.86
2018-12-25T00:32:17.778Z,1018.85
2018-12-25T00:33:17.761Z,1018.87
2018-12-25T00:34:17.751Z,1018.91
2018-12-25T00:35:17.746Z,1018.89
2018-12-25T00:36:17.745Z,1018.92
2018-12-25T00:37:17.724Z,1018.95
2018-12-25T00:38:17.711Z,1018.99
2018-12-25T00:39:17.700Z,1018.99
2018-12-25T00:40:17.691Z,1019.06
2018-12-25T00:41:17.691Z,1019.06
2018-12-25T00:42:17.666Z,1019.08
2018-12-25T00:43:17.657Z,1019.07
2018-12-25T00:44:17.641Z,1019.01
2018-12-25T00:45:18.422Z,1019.10
2018-12-25T00:46:17.624Z,1019.14
2018-12-25T00:47:17.615Z,1019.13
2018-12-25T00:48:17.598Z,1019.10
2018-12-25T00:49:17.594Z,1019.14
2018-12-25T00:50:17.592Z,1019.13
2018-12-25T00:51:17.595Z,1019.13
2018-12-25T00:52:17.988Z,1019.17
2018-12-25T00:53:17.974Z,1019.18
2018-12-25T00:54:17.972Z,1019.22
2018-12-25T00:55:18.429Z,1019.22
2018-12-25T00:56:17.971Z,1019.24
2018-12-25T00:57:17.984Z,1019.20
2018-12-25T00:58:18.559Z,1019.22
2018-12-25T00:59:18.390Z,1019.22
2018-12-25T01:00:17.908Z,1019.21
2018-12-25T01:01:17.992Z,1019.19
2018-12-25T01:02:18.584Z,1019.16
2018-12-25T01:03:17.863Z,1019.23
2018-12-25T01:04:18.621Z,1019.21
2018-12-25T01:05:18.064Z,1019.20
2018-12-25T01:06:18.105Z,1019.26
2018-12-25T01:07:17.398Z,1019.27
2018-12-25T01:08:17.383Z,1019.24
2018-12-25T01:09:17.381Z,1019.25
2018-12-25T01:10:17.382Z,1019.25
2018-12-25T01:11:17.355Z,1019.19
2018-12-25T01:12:17.352Z,1019.24
2018-12-25T01:13:17.327Z,1019.31
2018-12-25T01:14:17.323Z,1019.26
2018-12-25T01:15:17.327Z,1019.28
2018-12-25T01:16:17.295Z,1019.20
2018-12-25T01:17:17.294Z,1019.24
2018-12-25T01:18:17.398Z,1019.24
2018-12-25T01:19:23.192Z,1019.27
2018-12-25T01:20:19.169Z,1019.31
2018-12-25T01:21:17.877Z,1019.29
2018-12-25T01:22:17.713Z,1019.33
2018-12-25T01:23:17.741Z,1019.33
2018-12-25T01:24:17.217Z,1019.28
2018-12-25T01:25:17.198Z,1019.31
2018-12-25T01:26:17.221Z,1019.30
2018-12-25T01:27:17.180Z,1019.33
2018-12-25T01:28:17.167Z,1019.31
2018-12-25T01:29:17.190Z,1019.36
2018-12-25T01:30:17.149Z,1019.29
2018-12-25T01:31:17.139Z,1019.38
2018-12-25T01:32:17.130Z,1019.35
2018-12-25T01:33:17.136Z,1019.36
2018-12-25T01:34:17.132Z,1019.33
2018-12-25T01:35:17.116Z,1019.34
2018-12-25T01:36:17.110Z,1019.29
2018-12-25T01:37:17.075Z,1019.24
2018-12-25T01:38:17.060Z,1019.29
2018-12-25T01:39:17.049Z,1019.23
2018-12-25T01:40:17.042Z,1019.26
2018-12-25T01:41:17.052Z,1019.24
2018-12-25T01:42:17.029Z,1019.24
2018-12-25T01:43:17.009Z,1019.27
2018-12-25T01:44:16.999Z,1019.26
2018-12-25T01:45:16.992Z,1019.26
2018-12-25T01:46:16.990Z,1019.26
2018-12-25T01:47:16.962Z,1019.31
2018-12-25T01:48:16.949Z,1019.33
2018-12-25T01:49:16.945Z,1019.33
2018-12-25T01:50:16.932Z,1019.29
2018-12-25T01:51:16.945Z,1019.31
2018-12-25T01:52:16.906Z,1019.28
2018-12-25T01:53:16.902Z,1019.29
2018-12-25T01:54:16.888Z,1019.28
2018-12-25T01:55:16.881Z,1019.29
2018-12-25T01:56:16.870Z,1019.27
2018-12-25T01:57:16.874Z,1019.25
2018-12-25T01:58:16.842Z,1019.20
2018-12-25T01:59:16.834Z,1019.20
2018-12-25T02:00:16.819Z,1019.18
2018-12-25T02:01:16.814Z,1019.17
2018-12-25T02:02:16.801Z,1019.16
2018-12-25T02:03:16.808Z,1019.17
2018-12-25T02:04:16.782Z,1019.20
2018-12-25T02:05:16.817Z,1019.17
2018-12-25T02:06:16.755Z,1019.21
2018-12-25T02:07:16.778Z,1019.18
2018-12-25T02:08:16.741Z,1019.21
2018-12-25T02:09:16.720Z,1019.22
2018-12-25T02:10:16.714Z,1019.26
2018-12-25T02:11:16.707Z,1019.26
2018-12-25T02:12:16.696Z,1019.26
2018-12-25T02:13:16.700Z,1019.29
2018-12-25T02:14:16.668Z,1019.34
2018-12-25T02:15:16.687Z,1019.36
2018-12-25T02:16:16.645Z,1019.37
2018-12-25T02:17:16.643Z,1019.40
2018-12-25T02:18:16.629Z,1019.41
2018-12-25T02:19:16.634Z,1019.44
2018-12-25T02:20:16.610Z,1019.42
2018-12-25T02:21:16.590Z,1019.40
2018-12-25T02:22:16.582Z,1019.41
2018-12-25T02:23:16.574Z,1019.40
2018-12-25T02:24:16.590Z,1019.39
2018-12-25T02:25:16.548Z,1019.34
2018-12-25T02:26:16.539Z,1019.38
2018-12-25T02:27:16.546Z,1019.36
2018-12-25T02:28:16.516Z,1019.44
2018-12-25T02:29:16.513Z,1019.44
2018-12-25T02:30:16.502Z,1019.40
2018-12-25T02:31:16.490Z,1019.49
2018-12-25T02:32:16.500Z,1019.53
2018-12-25T02:33:16.465Z,1019.48
2018-12-25T02:34:16.452Z,1019.52
2018-12-25T02:35:16.458Z,1019.49
2018-12-25T02:36:16.438Z,1019.47
2018-12-25T02:37:16.424Z,1019.44
2018-12-25T02:38:16.433Z,1019.43
2018-12-25T02:39:16.400Z,1019.48
2018-12-25T02:40:16.406Z,1019.48
2018-12-25T02:41:16.383Z,1019.52
2018-12-25T02:42:16.379Z,1019.49
2018-12-25T02:43:16.384Z,1019.53
2018-12-25T02:44:16.353Z,1019.54
2018-12-25T02:45:16.338Z,1019.50
2018-12-25T02:46:16.322Z,1019.45
2018-12-25T02:47:16.313Z,1019.49
2018-12-25T02:48:16.321Z,1019.42
2018-12-25T02:49:18.365Z,1019.42
2018-12-25T02:50:16.287Z,1019.42
2018-12-25T02:51:16.275Z,1019.36
2018-12-25T02:52:16.262Z,1019.40
2018-12-25T02:53:16.284Z,1019.37
2018-12-25T02:54:16.236Z,1019.37
2018-12-25T02:55:16.234Z,1019.35
2018-12-25T02:56:16.220Z,1019.36
2018-12-25T02:57:16.207Z,1019.32
2018-12-25T02:58:16.193Z,1019.33
2018-12-25T02:59:16.203Z,1019.28
2018-12-25T03:00:16.178Z,1019.32
2018-12-25T03:01:16.177Z,1019.31
2018-12-25T03:02:16.160Z,1019.30
2018-12-25T03:03:16.170Z,1019.31
2018-12-25T03:04:16.137Z,1019.29
2018-12-25T03:05:16.123Z,1019.26
2018-12-25T03:06:16.110Z,1019.27
2018-12-25T03:07:16.099Z,1019.29
2018-12-25T03:08:16.090Z,1019.25
2018-12-25T03:09:16.101Z,1019.22
2018-12-25T03:10:16.095Z,1019.19
2018-12-25T03:11:16.055Z,1019.17
2018-12-25T03:12:16.046Z,1019.22
2018-12-25T03:13:16.055Z,1019.16
2018-12-25T03:14:16.028Z,1019.15
2018-12-25T03:15:16.041Z,1019.14
2018-12-25T03:16:16.006Z,1019.17
2018-12-25T03:17:15.993Z,1019.18
2018-12-25T03:18:15.999Z,1019.21
2018-12-25T03:19:15.968Z,1019.19
2018-12-25T03:20:15.976Z,1019.19
2018-12-25T03:21:15.953Z,1019.19
2018-12-25T03:22:15.944Z,1019.14
2018-12-25T03:23:15.936Z,1019.20
2018-12-25T03:24:15.937Z,1019.19
2018-12-25T03:25:15.906Z,1019.16
2018-12-25T03:26:15.896Z,1019.19
2018-12-25T03:27:15.889Z,1019.15
2018-12-25T03:28:15.876Z,1019.21
2018-12-25T03:29:15.881Z,1019.19
2018-12-25T03:30:15.868Z,1019.14
2018-12-25T03:31:15.844Z,1019.20
2018-12-25T03:32:15.833Z,1019.16
2018-12-25T03:33:15.841Z,1019.13
2018-12-25T03:34:15.840Z,1019.16
2018-12-25T03:35:15.803Z,1019.10
2018-12-25T03:36:15.790Z,1019.07
2018-12-25T03:37:15.777Z,1019.05
2018-12-25T03:38:15.765Z,1019.05
2018-12-25T03:39:15.755Z,1019.03
2018-12-25T03:40:15.795Z,1019.04
2018-12-25T03:41:15.736Z,1019.01
2018-12-25T03:42:15.729Z,1019.03
2018-12-25T03:43:15.726Z,1019.00
2018-12-25T03:44:15.727Z,1019.06
2018-12-25T03:45:15.696Z,1019.02
2018-12-25T03:46:15.692Z,1018.99
2018-12-25T03:47:15.675Z,1018.98
2018-12-25T03:48:15.665Z,1018.97
2018-12-25T03:49:15.648Z,1018.92
2018-12-25T03:50:15.656Z,1018.97
2018-12-25T03:51:15.627Z,1018.92
2018-12-25T03:52:15.615Z,1018.88
2018-12-25T03:53:15.608Z,1018.92
2018-12-25T03:54:15.614Z,1018.87
2018-12-25T03:55:15.591Z,1018.89
2018-12-25T03:56:15.594Z,1018.89
2018-12-25T03:57:15.559Z,1018.95
2018-12-25T03:58:15.555Z,1018.98
2018-12-25T03:59:15.568Z,1018.96
2018-12-25T04:00:15.534Z,1018.91
2018-12-25T04:01:15.520Z,1018.96
2018-12-25T04:02:15.503Z,1018.91
2018-12-25T04:03:15.493Z,1018.90
2018-12-25T04:04:15.485Z,1018.88
2018-12-25T04:05:15.511Z,1018.92
2018-12-25T04:06:15.533Z,1018.96
2018-12-25T04:07:15.456Z,1018.97
2018-12-25T04:08:15.775Z,1019.00
2018-12-25T04:09:15.434Z,1018.93
2018-12-25T04:10:15.418Z,1019.00
2018-12-25T04:11:15.407Z,1019.02
2018-12-25T04:12:15.417Z,1018.94
2018-12-25T04:13:15.393Z,1018.91
2018-12-25T04:14:15.381Z,1018.95
2018-12-25T04:15:15.403Z,1018.94
2018-12-25T04:16:15.356Z,1018.93
2018-12-25T04:17:15.350Z,1018.93
2018-12-25T04:18:15.339Z,1018.93
2018-12-25T04:19:15.329Z,1018.93
2018-12-25T04:20:19.704Z,1018.96
2018-12-25T04:21:15.318Z,1018.96
2018-12-25T04:22:15.287Z,1018.94
2018-12-25T04:23:15.278Z,1018.95
2018-12-25T04:24:15.272Z,1018.99
2018-12-25T04:25:15.282Z,1019.02
2018-12-25T04:26:15.259Z,1019.03
2018-12-25T04:27:15.243Z,1019.00
2018-12-25T04:28:15.227Z,1019.01
2018-12-25T04:29:15.216Z,1018.98
2018-12-25T04:30:15.204Z,1019.00
2018-12-25T04:31:15.216Z,1019.02
2018-12-25T04:32:15.183Z,1018.97
2018-12-25T04:33:15.172Z,1018.93
2018-12-25T04:34:15.158Z,1018.97
2018-12-25T04:35:15.148Z,1018.92
2018-12-25T04:36:15.167Z,1018.93
2018-12-25T04:37:15.130Z,1018.96
2018-12-25T04:38:15.124Z,1018.92
2018-12-25T04:39:15.112Z,1018.93
2018-12-25T04:40:15.103Z,1018.94
2018-12-25T04:41:15.102Z,1019.03
2018-12-25T04:42:15.072Z,1019.03
2018-12-25T04:43:15.079Z,1019.08
2018-12-25T04:44:15.054Z,1019.10
2018-12-25T04:45:15.050Z,1019.10
2018-12-25T04:46:15.053Z,1019.12
2018-12-25T04:47:15.017Z,1019.05
2018-12-25T04:48:15.019Z,1019.06
2018-12-25T04:49:15.001Z,1019.04
2018-12-25T04:50:14.994Z,1019.04
2018-12-25T04:51:15.005Z,1019.03
2018-12-25T04:52:14.968Z,1018.97
2018-12-25T04:53:14.956Z,1018.97
2018-12-25T04:54:14.947Z,1018.96
2018-12-25T04:55:14.932Z,1018.92
2018-12-25T04:56:14.930Z,1018.92
2018-12-25T04:57:14.939Z,1018.94
2018-12-25T04:58:14.908Z,1018.94
2018-12-25T04:59:14.899Z,1018.90
2018-12-25T05:00:14.882Z,1018.89
2018-12-25T05:01:14.872Z,1018.92
2018-12-25T05:02:14.877Z,1018.86
2018-12-25T05:03:14.852Z,1018.91
2018-12-25T05:04:14.840Z,1018.89
2018-12-25T05:05:14.833Z,1018.88
2018-12-25T05:06:14.813Z,1018.92
2018-12-25T05:07:14.828Z,1018.93
2018-12-25T05:08:14.795Z,1018.90
2018-12-25T05:09:14.786Z,1018.91
2018-12-25T05:10:14.781Z,1018.96
2018-12-25T05:11:14.767Z,1018.98
2018-12-25T05:12:14.763Z,1019.01
2018-12-25T05:13:14.761Z,1018.99
2018-12-25T05:14:14.727Z,1018.99
2018-12-25T05:15:14.717Z,1019.02
2018-12-25T05:16:14.708Z,1018.99
2018-12-25T05:17:14.717Z,1019.03
2018-12-25T05:18:14.791Z,1018.95
2018-12-25T05:19:14.674Z,1018.97
2018-12-25T05:20:14.667Z,1018.94
2018-12-25T05:21:14.657Z,1018.92
2018-12-25T05:22:14.665Z,1018.95
2018-12-25T05:23:14.655Z,1018.98
2018-12-25T05:24:14.624Z,1018.97
2018-12-25T05:25:14.636Z,1018.97
2018-12-25T05:26:14.597Z,1019.01
2018-12-25T05:27:14.606Z,1018.97
2018-12-25T05:28:14.578Z,1019.01
2018-12-25T05:29:14.569Z,1019.00
2018-12-25T05:30:14.562Z,1019.04
2018-12-25T05:31:14.550Z,1019.04
2018-12-25T05:32:14.561Z,1019.01
2018-12-25T05:33:14.540Z,1019.00
2018-12-25T05:34:14.514Z,1019.00
2018-12-25T05:35:14.507Z,1019.06
2018-12-25T05:36:14.494Z,1018.97
2018-12-25T05:37:14.481Z,1019.00
2018-12-25T05:38:14.493Z,1019.00
2018-12-25T05:39:14.463Z,1019.01
2018-12-25T05:40:14.452Z,1019.07
2018-12-25T05:41:14.442Z,1019.08
2018-12-25T05:42:14.430Z,1019.06
2018-12-25T05:43:14.420Z,1019.01
2018-12-25T05:44:14.429Z,1019.08
2018-12-25T05:45:14.394Z,1019.04
2018-12-25T05:46:14.379Z,1019.03
2018-12-25T05:47:14.375Z,1018.97
2018-12-25T05:48:14.379Z,1018.97
2018-12-25T05:49:14.355Z,1018.94
2018-12-25T05:50:14.344Z,1018.90
2018-12-25T05:51:14.352Z,1018.99
2018-12-25T05:52:14.321Z,1018.98
2018-12-25T05:53:14.311Z,1018.99
2018-12-25T05:54:14.301Z,1019.01
2018-12-25T05:55:14.291Z,1018.99
2018-12-25T05:56:14.278Z,1018.97
2018-12-25T05:57:14.284Z,1019.01
2018-12-25T05:58:14.269Z,1018.98
2018-12-25T05:59:14.259Z,1018.97
2018-12-25T06:00:14.246Z,1019.01
2018-12-25T06:01:14.223Z,1019.06
2018-12-25T06:02:14.216Z,1019.07
2018-12-25T06:03:14.224Z,1019.06
2018-12-25T06:04:14.198Z,1019.00
2018-12-25T06:05:14.207Z,1019.02
2018-12-25T06:06:14.173Z,1018.97
2018-12-25T06:07:14.162Z,1019.01
2018-12-25T06:08:14.169Z,1019.04
2018-12-25T06:09:14.141Z,1019.02
2018-12-25T06:10:14.124Z,1019.00
2018-12-25T06:11:14.114Z,1019.03
2018-12-25T06:12:14.108Z,1019.00
2018-12-25T06:13:14.124Z,1019.01
2018-12-25T06:14:14.089Z,1019.01
2018-12-25T06:15:14.078Z,1018.97
2018-12-25T06:16:14.065Z,1018.96
2018-12-25T06:17:14.053Z,1019.00
2018-12-25T06:18:14.040Z,1018.99
2018-12-25T06:19:14.047Z,1018.99
2018-12-25T06:20:14.020Z,1019.04
2018-12-25T06:21:14.013Z,1019.06
2018-12-25T06:22:14.004Z,1019.03
2018-12-25T06:23:13.987Z,1019.07
2018-12-25T06:24:14.002Z,1019.10
2018-12-25T06:25:13.969Z,1019.04
2018-12-25T06:26:13.964Z,1019.11
2018-12-25T06:27:13.952Z,1019.09
2018-12-25T06:28:13.941Z,1019.06
2018-12-25T06:29:13.926Z,1019.02
2018-12-25T06:30:13.928Z,1019.08
2018-12-25T06:31:13.901Z,1019.09
2018-12-25T06:32:13.892Z,1019.10
2018-12-25T06:33:13.885Z,1019.07
2018-12-25T06:34:13.893Z,1019.12
2018-12-25T06:35:13.888Z,1019.07
2018-12-25T06:36:13.853Z,1019.13
2018-12-25T06:37:13.845Z,1019.11
2018-12-25T06:38:13.826Z,1019.15
2018-12-25T06:39:13.840Z,1019.07
2018-12-25T06:40:13.810Z,1019.11
2018-12-25T06:41:13.796Z,1019.06
2018-12-25T06:42:13.810Z,1019.08
2018-12-25T06:43:13.819Z,1019.07
2018-12-25T06:44:13.781Z,1019.01
2018-12-25T06:45:13.761Z,1019.01
2018-12-25T06:46:13.759Z,1019.04
2018-12-25T06:47:13.731Z,1019.00
2018-12-25T06:48:13.721Z,1018.96
2018-12-25T06:49:13.732Z,1019.00
2018-12-25T06:50:13.703Z,1019.01
2018-12-25T06:51:13.754Z,1018.99
2018-12-25T06:52:13.680Z,1019.01
2018-12-25T06:53:13.667Z,1019.01
2018-12-25T06:54:13.671Z,1018.99
2018-12-25T06:55:13.649Z,1018.96
2018-12-25T06:56:13.636Z,1018.92
2018-12-25T06:57:13.625Z,1018.95
2018-12-25T06:58:13.612Z,1018.95
2018-12-25T06:59:13.618Z,1018.95
2018-12-25T07:00:13.621Z,1018.90
2018-12-25T07:01:13.585Z,1018.87
2018-12-25T07:02:13.574Z,1018.89
2018-12-25T07:03:13.567Z,1018.90
2018-12-25T07:04:13.549Z,1018.87
2018-12-25T07:05:13.536Z,1018.92
2018-12-25T07:06:13.549Z,1018.93
2018-12-25T07:07:13.515Z,1018.93
2018-12-25T07:08:13.505Z,1018.95
2018-12-25T07:09:13.496Z,1018.97
2018-12-25T07:10:13.490Z,1018.93
2018-12-25T07:11:13.471Z,1018.94
2018-12-25T07:12:13.485Z,1018.89
2018-12-25T07:13:13.458Z,1018.93
2018-12-25T07:14:13.444Z,1018.92
2018-12-25T07:15:13.432Z,1018.92
2018-12-25T07:16:13.419Z,1018.93
2018-12-25T07:17:13.409Z,1018.93
2018-12-25T07:18:13.412Z,1018.92
2018-12-25T07:19:13.384Z,1018.87
2018-12-25T07:20:13.392Z,1018.88
2018-12-25T07:21:13.371Z,1018.93
2018-12-25T07:22:13.360Z,1018.87
2018-12-25T07:23:13.384Z,1018.85
2018-12-25T07:24:13.333Z,1018.84
2018-12-25T07:25:13.338Z,1018.91
2018-12-25T07:26:13.307Z,1018.87
2018-12-25T07:27:13.322Z,1018.82
2018-12-25T07:28:13.297Z,1018.81
2018-12-25T07:29:13.278Z,1018.85
2018-12-25T07:30:13.267Z,1018.85
2018-12-25T07:31:13.254Z,1018.83
2018-12-25T07:32:13.265Z,1018.81
2018-12-25T07:33:13.249Z,1018.76
2018-12-25T07:34:13.235Z,1018.78
2018-12-25T07:35:13.219Z,1018.70
2018-12-25T07:36:13.206Z,1018.74
2018-12-25T07:37:13.215Z,1018.71
2018-12-25T07:38:13.181Z,1018.72
2018-12-25T07:39:13.170Z,1018.74
2018-12-25T07:40:13.178Z,1018.75
2018-12-25T07:41:13.152Z,1018.77
2018-12-25T07:42:13.144Z,1018.76
2018-12-25T07:43:13.153Z,1018.77
2018-12-25T07:44:13.169Z,1018.78
2018-12-25T07:45:13.110Z,1018.76
2018-12-25T07:46:13.100Z,1018.78
2018-12-25T07:47:13.090Z,1018.85
2018-12-25T07:48:13.095Z,1018.85
2018-12-25T07:49:13.072Z,1018.79
2018-12-25T07:50:13.051Z,1018.84
2018-12-25T07:51:20.533Z,1018.73
2018-12-25T07:52:14.030Z,1018.78
2018-12-25T07:53:13.024Z,1018.83
2018-12-25T07:54:13.016Z,1018.88
2018-12-25T07:55:13.008Z,1018.86
2018-12-25T07:56:13.011Z,1018.85
2018-12-25T07:57:12.979Z,1018.86
2018-12-25T07:58:12.966Z,1018.82
2018-12-25T07:59:12.980Z,1018.81
2018-12-25T08:00:12.966Z,1018.80
2018-12-25T08:01:12.957Z,1018.93
2018-12-25T08:02:12.924Z,1018.86
2018-12-25T08:03:12.925Z,1018.88
2018-12-25T08:04:12.906Z,1018.89
2018-12-25T08:05:12.946Z,1018.94
2018-12-25T08:06:12.968Z,1018.90
2018-12-25T08:07:12.876Z,1018.91
2018-12-25T08:08:12.864Z,1018.90
2018-12-25T08:09:12.855Z,1018.96
2018-12-25T08:10:12.873Z,1019.02
2018-12-25T08:11:12.847Z,1019.09
2018-12-25T08:12:12.824Z,1019.06
2018-12-25T08:13:12.809Z,1019.13
2018-12-25T08:14:12.827Z,1019.14
2018-12-25T08:15:12.795Z,1019.17
2018-12-25T08:16:12.837Z,1019.21
2018-12-25T08:17:12.767Z,1019.18
2018-12-25T08:18:12.785Z,1019.16
2018-12-25T08:19:12.748Z,1019.15
2018-12-25T08:20:12.743Z,1019.19
2018-12-25T08:21:12.741Z,1019.14
2018-12-25T08:22:12.709Z,1019.15
2018-12-25T08:23:12.705Z,1019.13
2018-12-25T08:24:12.689Z,1019.08
2018-12-25T08:25:12.683Z,1019.10
2018-12-25T08:26:12.742Z,1019.12
2018-12-25T08:27:12.721Z,1019.17
2018-12-25T08:28:12.649Z,1019.16
2018-12-25T08:29:12.635Z,1019.11
2018-12-25T08:30:12.623Z,1019.11
2018-12-25T08:31:12.635Z,1019.11
2018-12-25T08:32:12.609Z,1019.15
2018-12-25T08:33:12.609Z,1019.16
2018-12-25T08:34:12.578Z,1019.15
2018-12-25T08:35:12.571Z,1019.16
2018-12-25T08:36:12.560Z,1019.19
2018-12-25T08:37:12.587Z,1019.23
2018-12-25T08:38:12.542Z,1019.20
2018-12-25T08:39:12.533Z,1019.22
2018-12-25T08:40:12.520Z,1019.28
2018-12-25T08:41:12.508Z,1019.27
2018-12-25T08:42:12.525Z,1019.26
2018-12-25T08:43:12.506Z,1019.24
2018-12-25T08:44:12.476Z,1019.24
2018-12-25T08:45:12.468Z,1019.27
2018-12-25T08:46:12.460Z,1019.26
2018-12-25T08:47:12.470Z,1019.27
2018-12-25T08:48:12.495Z,1019.24
2018-12-25T08:49:12.423Z,1019.27
2018-12-25T08:50:12.424Z,1019.29
2018-12-25T08:51:12.406Z,1019.20
2018-12-25T08:52:12.421Z,1019.22
2018-12-25T08:53:12.380Z,1019.22
2018-12-25T08:54:12.365Z,1019.20
2018-12-25T08:55:12.355Z,1019.25
2018-12-25T08:56:12.348Z,1019.24
2018-12-25T08:57:12.364Z,1019.21
2018-12-25T08:58:12.335Z,1019.21
2018-12-25T08:59:12.323Z,1019.23
2018-12-25T09:00:12.320Z,1019.23
2018-12-25T09:01:12.300Z,1019.23
2018-12-25T09:02:12.282Z,1019.23
2018-12-25T09:03:12.295Z,1019.20
2018-12-25T09:04:12.264Z,1019.23
2018-12-25T09:05:12.254Z,1019.21
2018-12-25T09:06:12.243Z,1019.24
2018-12-25T09:07:12.261Z,1019.18
2018-12-25T09:08:12.236Z,1019.18
2018-12-25T09:09:12.285Z,1019.15
2018-12-25T09:10:12.223Z,1019.14
2018-12-25T09:11:12.197Z,1019.11
2018-12-25T09:12:12.199Z,1019.11
2018-12-25T09:13:12.167Z,1019.06
2018-12-25T09:14:12.153Z,1019.10
2018-12-25T09:15:12.172Z,1019.03
2018-12-25T09:16:12.134Z,1019.01
2018-12-25T09:17:12.144Z,1019.02
2018-12-25T09:18:12.116Z,1019.06
2018-12-25T09:19:12.099Z,1019.01
2018-12-25T09:20:12.091Z,1019.00
2018-12-25T09:21:12.100Z,1019.00
2018-12-25T09:22:12.368Z,1018.98
2018-12-25T09:23:12.087Z,1018.93
2018-12-25T09:24:12.050Z,1018.97
2018-12-25T09:25:12.038Z,1018.99
2018-12-25T09:26:12.024Z,1018.98
2018-12-25T09:27:12.013Z,1018.95
2018-12-25T09:28:12.028Z,1018.93
2018-12-25T09:29:12.073Z,1018.92
2018-12-25T09:30:12.037Z,1018.91
2018-12-25T09:31:11.978Z,1018.91
2018-12-25T09:32:11.965Z,1018.90
2018-12-25T09:33:11.969Z,1018.88
2018-12-25T09:34:11.942Z,1018.89
2018-12-25T09:35:11.935Z,1018.92
2018-12-25T09:36:11.924Z,1018.89
2018-12-25T09:37:11.910Z,1018.93
2018-12-25T09:38:11.973Z,1018.92
2018-12-25T09:39:11.891Z,1018.91
2018-12-25T09:40:11.876Z,1018.84
2018-12-25T09:41:11.868Z,1018.83
2018-12-25T09:42:11.859Z,1018.88
2018-12-25T09:43:11.872Z,1018.88
2018-12-25T09:44:11.859Z,1018.84
2018-12-25T09:45:11.826Z,1018.80
2018-12-25T09:46:11.813Z,1018.84
2018-12-25T09:47:11.801Z,1018.84
2018-12-25T09:48:13.445Z,1018.82
2018-12-25T09:49:11.786Z,1018.83
2018-12-25T09:50:11.823Z,1018.71
2018-12-25T09:51:11.827Z,1018.74
2018-12-25T09:52:11.748Z,1018.72
2018-12-25T09:53:11.772Z,1018.72
2018-12-25T09:54:11.734Z,1018.73
2018-12-25T09:55:11.720Z,1018.70
2018-12-25T09:56:11.707Z,1018.78
2018-12-25T09:57:11.700Z,1018.79
2018-12-25T09:58:11.700Z,1018.76
2018-12-25T09:59:11.670Z,1018.76
2018-12-25T10:00:11.662Z,1018.79
2018-12-25T10:01:11.654Z,1018.83
2018-12-25T10:02:11.673Z,1018.82
2018-12-25T10:03:11.635Z,1018.83
2018-12-25T10:04:11.626Z,1018.86
2018-12-25T10:05:11.608Z,1018.87
2018-12-25T10:06:11.602Z,1018.88
2018-12-25T10:07:11.591Z,1018.93
2018-12-25T10:08:11.600Z,1018.94
2018-12-25T10:09:11.567Z,1018.88
2018-12-25T10:10:11.551Z,1018.92
2018-12-25T10:11:11.597Z,1018.90
2018-12-25T10:12:11.581Z,1018.94
2018-12-25T10:13:11.526Z,1018.95
2018-12-25T10:14:11.540Z,1018.94
2018-12-25T10:15:11.506Z,1018.96
2018-12-25T10:16:11.492Z,1019.01
2018-12-25T10:17:11.480Z,1019.00
2018-12-25T10:18:11.468Z,1018.98
2018-12-25T10:19:11.456Z,1019.04
2018-12-25T10:20:11.466Z,1019.04
2018-12-25T10:21:11.438Z,1019.05
2018-12-25T10:22:11.431Z,1019.10
2018-12-25T10:23:11.413Z,1019.08
2018-12-25T10:24:11.421Z,1019.04
2018-12-25T10:25:11.401Z,1019.05
2018-12-25T10:26:11.387Z,1019.00
2018-12-25T10:27:11.376Z,1019.03
2018-12-25T10:28:11.364Z,1019.05
2018-12-25T10:29:11.369Z,1019.04
2018-12-25T10:30:11.341Z,1019.06
2018-12-25T10:31:11.379Z,1019.01
2018-12-25T10:32:11.333Z,1018.96
2018-12-25T10:33:11.372Z,1018.95
2018-12-25T10:34:11.317Z,1018.96
2018-12-25T10:35:11.295Z,1018.93
2018-12-25T10:36:11.276Z,1018.94
2018-12-25T10:37:11.432Z,1018.91
2018-12-25T10:38:11.252Z,1018.97
2018-12-25T10:39:11.264Z,1019.00
2018-12-25T10:40:11.234Z,1019.00
2018-12-25T10:41:11.221Z,1019.01
2018-12-25T10:42:11.207Z,1019.03
2018-12-25T10:43:11.196Z,1019.00
2018-12-25T10:44:11.209Z,1019.02
2018-12-25T10:45:11.180Z,1019.00
2018-12-25T10:46:11.171Z,1018.95
2018-12-25T10:47:11.165Z,1018.90
2018-12-25T10:48:11.147Z,1018.86
2018-12-25T10:49:11.151Z,1018.85
2018-12-25T10:50:11.122Z,1018.84
2018-12-25T10:51:11.113Z,1018.80
2018-12-25T10:52:11.754Z,1018.75
2018-12-25T10:53:11.128Z,1018.73
2018-12-25T10:54:11.139Z,1018.73
2018-12-25T10:55:11.067Z,1018.76
2018-12-25T10:56:11.058Z,1018.76
2018-12-25T10:57:11.072Z,1018.82
2018-12-25T10:58:11.042Z,1018.75
2018-12-25T10:59:11.069Z,1018.77
2018-12-25T11:00:11.036Z,1018.80
2018-12-25T11:01:11.005Z,1018.80
2018-12-25T11:02:10.993Z,1018.77
2018-12-25T11:03:13.010Z,1018.79
2018-12-25T11:04:10.984Z,1018.77
2018-12-25T11:05:11.011Z,1018.75
2018-12-25T11:06:11.008Z,1018.76
2018-12-25T11:07:11.018Z,1018.84
2018-12-25T11:08:10.966Z,1018.85
2018-12-25T11:09:10.916Z,1018.87
2018-12-25T11:10:10.909Z,1018.86
2018-12-25T11:11:10.901Z,1018.86
2018-12-25T11:12:10.890Z,1019.00
2018-12-25T11:13:10.897Z,1018.91
2018-12-25T11:14:10.915Z,1018.87
2018-12-25T11:15:10.913Z,1018.85
2018-12-25T11:16:10.840Z,1018.84
2018-12-25T11:17:10.839Z,1018.84
2018-12-25T11:18:10.824Z,1018.85
2018-12-25T11:19:10.852Z,1018.89
2018-12-25T11:20:11.601Z,1018.90
2018-12-25T11:21:11.035Z,1018.90
2018-12-25T11:22:19.638Z,1018.89
2018-12-25T11:23:11.782Z,1018.89
2018-12-25T11:24:10.797Z,1018.90
2018-12-25T11:25:10.813Z,1018.84
2018-12-25T11:26:10.765Z,1018.85
2018-12-25T11:27:10.739Z,1018.84
2018-12-25T11:28:10.738Z,1018.82
2018-12-25T11:29:10.710Z,1018.80
2018-12-25T11:30:10.712Z,1018.78
2018-12-25T11:31:10.682Z,1018.78
2018-12-25T11:32:10.675Z,1018.79
2018-12-25T11:33:10.657Z,1018.76
2018-12-25T11:34:10.666Z,1018.81
2018-12-25T11:35:10.712Z,1018.79
2018-12-25T11:36:10.634Z,1018.75
2018-12-25T11:37:10.620Z,1018.76
2018-12-25T11:38:10.626Z,1018.72
2018-12-25T11:39:10.596Z,1018.72
2018-12-25T11:40:10.586Z,1018.67
2018-12-25T11:41:10.588Z,1018.70
2018-12-25T11:42:10.562Z,1018.61
2018-12-25T11:43:10.553Z,1018.63
2018-12-25T11:44:10.543Z,1018.63
2018-12-25T11:45:10.528Z,1018.57
2018-12-25T11:46:10.549Z,1018.56
2018-12-25T11:47:10.507Z,1018.61
2018-12-25T11:48:10.496Z,1018.58
2018-12-25T11:49:10.496Z,1018.64
2018-12-25T11:50:10.477Z,1018.59
2018-12-25T11:51:10.494Z,1018.61
2018-12-25T11:52:10.457Z,1018.60
2018-12-25T11:53:10.445Z,1018.60
2018-12-25T11:54:10.431Z,1018.62
2018-12-25T11:55:10.423Z,1018.59
2018-12-25T11:56:10.454Z,1018.60
2018-12-25T11:57:10.479Z,1018.62
2018-12-25T11:58:12.067Z,1018.60
2018-12-25T11:59:10.378Z,1018.62
2018-12-25T12:00:10.365Z,1018.61
2018-12-25T12:01:10.380Z,1018.60
2018-12-25T12:02:17.045Z,1018.60
2018-12-25T12:03:11.344Z,1018.64
2018-12-25T12:04:10.337Z,1018.69
2018-12-25T12:05:10.309Z,1018.64